createdAt,value
2024-02-13T00:01:59.428Z,72.26
2024-02-13T00:04:26.955Z,72.22
2024-02-13T00:06:57.024Z,72.13
2024-02-13T00:09:24.208Z,72.53
2024-02-13T00:11:52.441Z,72.15
2024-02-13T00:14:20.979Z,72.19
2024-02-13T00:16:48.533Z,72.26
2024-02-13T00:19:15.782Z,72.19
2024-02-13T00:21:44.560Z,72.15
2024-02-13T00:24:11.984Z,72.08
2024-02-13T00:26:39.570Z,72.16
2024-02-13T00:29:06.705Z,72.24
2024-02-13T00:31:35.204Z,72.28
2024-02-13T00:34:23.446Z,72.39
2024-02-13T00:36:51.544Z,72.42
2024-02-13T00:39:19.035Z,72.23
2024-02-13T00:41:46.435Z,72.29
2024-02-13T00:44:13.559Z,72.12
2024-02-13T00:46:40.712Z,72.13
2024-02-13T00:49:07.927Z,72.11
2024-02-13T00:51:34.984Z,72.38
2024-02-13T00:54:02.099Z,72.28
2024-02-13T00:56:29.563Z,72.19
2024-02-13T00:59:03.095Z,71.88
2024-02-13T01:01:31.107Z,72.16
2024-02-13T01:03:58.428Z,72.06
2024-02-13T01:06:25.567Z,72.08
2024-02-13T01:08:52.705Z,72.07
2024-02-13T01:11:19.878Z,72.10
2024-02-13T01:13:47.418Z,72.08
2024-02-13T01:16:15.470Z,72.15
2024-02-13T01:18:42.772Z,72.07
2024-02-13T01:21:12.852Z,71.98
2024-02-13T01:23:40.002Z,71.82
2024-02-13T01:26:07.335Z,72.34
2024-02-13T01:28:36.109Z,72.24
2024-02-13T01:31:03.795Z,72.29
2024-02-13T01:33:31.645Z,72.46
2024-02-13T01:35:59.136Z,72.08
2024-02-13T01:38:29.328Z,72.18
2024-02-13T01:40:56.526Z,71.90
2024-02-13T01:43:26.508Z,71.91
2024-02-13T01:45:54.273Z,72.12
2024-02-13T01:48:22.958Z,72.09
2024-02-13T01:50:51.362Z,72.15
2024-02-13T01:53:22.474Z,72.09
2024-02-13T01:55:51.530Z,72.08
2024-02-13T01:58:20.668Z,72.10
2024-02-13T02:00:50.137Z,71.90
2024-02-13T02:03:19.145Z,71.79
2024-02-13T02:05:46.278Z,71.74
2024-02-13T02:08:30.249Z,71.63
2024-02-13T02:11:00.695Z,71.84
2024-02-13T02:13:30.507Z,71.74
2024-02-13T02:16:12.792Z,71.84
2024-02-13T02:18:40.763Z,71.90
2024-02-13T02:21:09.263Z,71.72
2024-02-13T02:23:36.830Z,71.66
2024-02-13T02:26:18.963Z,71.87
2024-02-13T02:29:03.674Z,71.99
2024-02-13T02:31:33.244Z,71.51
2024-02-13T02:34:00.871Z,71.45
2024-02-13T02:36:28.563Z,71.59
2024-02-13T02:38:55.730Z,71.64
2024-02-13T02:41:23.117Z,71.57
2024-02-13T02:43:50.371Z,71.56
2024-02-13T02:46:17.952Z,71.76
2024-02-13T02:48:45.474Z,71.69
2024-02-13T02:51:12.577Z,71.70
2024-02-13T02:53:39.870Z,71.86
2024-02-13T02:56:07.492Z,71.57
2024-02-13T02:58:35.076Z,71.64
2024-02-13T03:01:03.462Z,71.64
2024-02-13T03:03:32.827Z,71.46
2024-02-13T03:06:00.287Z,71.60
2024-02-13T03:08:29.298Z,71.62
2024-02-13T03:10:56.392Z,71.53
2024-02-13T03:13:23.977Z,71.23
2024-02-13T03:15:51.237Z,71.53
2024-02-13T03:18:21.385Z,71.66
2024-02-13T03:20:48.602Z,71.57
2024-02-13T03:23:17.468Z,71.91
2024-02-13T03:25:45.114Z,71.67
2024-02-13T03:28:32.128Z,71.49
2024-02-13T03:31:00.577Z,71.25
2024-02-13T03:33:27.830Z,71.46
2024-02-13T03:35:55.349Z,71.48
2024-02-13T03:38:22.647Z,71.53
2024-02-13T03:40:49.690Z,71.49
2024-02-13T03:43:16.751Z,71.47
2024-02-13T03:45:43.744Z,71.60
2024-02-13T03:48:23.939Z,71.66
2024-02-13T03:50:51.039Z,71.70
2024-02-13T03:53:18.134Z,71.63
2024-02-13T03:55:45.670Z,71.88
2024-02-13T03:58:13.978Z,71.56
2024-02-13T04:00:41.765Z,71.50
2024-02-13T04:03:08.972Z,71.45
2024-02-13T04:05:38.971Z,71.58
2024-02-13T04:08:07.761Z,71.48
2024-02-13T04:10:36.822Z,71.43
2024-02-13T04:13:14.101Z,71.75
2024-02-13T04:15:41.379Z,71.44
2024-02-13T04:18:09.398Z,71.44
2024-02-13T04:20:40.804Z,71.61
2024-02-13T04:23:08.658Z,71.31
2024-02-13T04:25:36.930Z,71.25
2024-02-13T04:28:05.099Z,71.33
2024-02-13T04:30:33.245Z,71.60
2024-02-13T04:33:00.744Z,71.34
2024-02-13T04:35:28.312Z,71.23
2024-02-13T04:37:55.629Z,71.32
2024-02-13T04:40:23.346Z,71.30
2024-02-13T04:43:10.611Z,71.56
2024-02-13T04:45:38.713Z,71.05
2024-02-13T04:48:06.648Z,71.26
2024-02-13T04:50:34.401Z,71.19
2024-02-13T04:53:01.732Z,71.25
2024-02-13T04:55:28.963Z,71.13
2024-02-13T04:57:58.261Z,71.21
2024-02-13T05:00:29.865Z,70.99
2024-02-13T05:03:15.922Z,71.04
2024-02-13T05:06:05.409Z,71.09
2024-02-13T05:08:32.662Z,71.34
2024-02-13T05:10:59.699Z,71.18
2024-02-13T05:13:26.881Z,70.97
2024-02-13T05:15:54.068Z,71.25
2024-02-13T05:18:22.270Z,71.12
2024-02-13T05:20:49.819Z,71.18
2024-02-13T05:23:17.328Z,70.90
2024-02-13T05:25:46.884Z,70.98
2024-02-13T05:28:13.913Z,70.76
2024-02-13T05:30:40.995Z,70.83
2024-02-13T05:33:08.286Z,70.65
2024-02-13T05:35:39.311Z,70.93
2024-02-13T05:38:06.600Z,70.87
2024-02-13T05:40:36.506Z,70.90
2024-02-13T05:43:06.434Z,71.31
2024-02-13T05:45:33.505Z,71.15
2024-02-13T05:48:04.909Z,71.23
2024-02-13T05:50:32.287Z,70.72
2024-02-13T05:52:59.853Z,71.03
2024-02-13T05:55:26.811Z,70.97
2024-02-13T05:57:54.415Z,71.42
2024-02-13T06:00:25.749Z,71.06
2024-02-13T06:02:56.771Z,70.93
2024-02-13T06:05:24.518Z,71.08
2024-02-13T06:07:52.977Z,71.24
2024-02-13T06:10:23.244Z,70.79
2024-02-13T06:12:50.402Z,70.83
2024-02-13T06:15:17.898Z,70.72
2024-02-13T06:17:46.087Z,70.66
2024-02-13T06:20:14.134Z,70.76
2024-02-13T06:22:43.026Z,70.56
2024-02-13T06:25:12.496Z,70.51
2024-02-13T06:27:41.832Z,70.81
2024-02-13T06:30:09.448Z,70.79
2024-02-13T06:32:46.462Z,70.73
2024-02-13T06:35:14.435Z,70.64
2024-02-13T06:38:01.342Z,70.53
2024-02-13T06:40:29.253Z,70.86
2024-02-13T06:42:56.353Z,70.63
2024-02-13T06:45:23.384Z,70.77
2024-02-13T06:47:50.779Z,70.52
2024-02-13T06:50:18.181Z,70.56
2024-02-13T06:52:45.531Z,70.68
2024-02-13T06:55:14.539Z,70.49
2024-02-13T06:57:58.336Z,70.50
2024-02-13T07:00:27.294Z,70.56
2024-02-13T07:02:56.298Z,70.81
2024-02-13T07:05:24.167Z,70.46
2024-02-13T07:07:51.504Z,70.05
2024-02-13T07:10:19.150Z,70.34
2024-02-13T07:13:05.256Z,70.18
2024-02-13T07:15:33.622Z,70.40
2024-02-13T07:18:02.032Z,70.26
2024-02-13T07:20:31.025Z,70.13
2024-02-13T07:22:58.872Z,70.37
2024-02-13T07:25:26.181Z,70.36
2024-02-13T07:27:54.091Z,70.23
2024-02-13T07:30:21.376Z,70.21
2024-02-13T07:32:48.732Z,70.13
2024-02-13T07:35:16.619Z,70.30
2024-02-13T07:37:59.919Z,70.21
2024-02-13T07:40:27.638Z,70.33
2024-02-13T07:42:54.959Z,70.22
2024-02-13T07:45:22.581Z,70.21
2024-02-13T07:48:07.573Z,70.03
2024-02-13T07:50:36.470Z,70.25
2024-02-13T07:53:06.021Z,70.23
2024-02-13T07:55:33.364Z,70.20
2024-02-13T07:58:12.619Z,70.06
2024-02-13T08:00:40.499Z,69.93
2024-02-13T08:03:08.232Z,69.98
2024-02-13T08:05:38.348Z,70.11
2024-02-13T08:08:10.537Z,70.22
2024-02-13T08:10:44.448Z,69.96
2024-02-13T08:13:11.533Z,69.98
2024-02-13T08:15:39.076Z,69.62
2024-02-13T08:18:06.412Z,69.72
2024-02-13T08:20:34.483Z,69.80
2024-02-13T08:23:03.939Z,69.54
2024-02-13T08:25:31.368Z,69.42
2024-02-13T08:27:59.954Z,69.11
2024-02-13T08:30:27.465Z,69.16
2024-02-13T08:32:54.947Z,69.03
2024-02-13T08:35:23.003Z,69.13
2024-02-13T08:37:52.617Z,68.97
2024-02-13T08:40:20.852Z,68.92
2024-02-13T08:42:49.523Z,68.89
2024-02-13T08:45:17.190Z,68.67
2024-02-13T08:47:58.600Z,68.75
2024-02-13T08:50:26.165Z,68.74
2024-02-13T08:53:01.108Z,68.86
2024-02-13T08:55:31.045Z,68.55
2024-02-13T08:57:59.274Z,68.62
2024-02-13T09:00:30.306Z,68.61
2024-02-13T09:03:12.775Z,68.50
2024-02-13T09:05:42.411Z,68.52
2024-02-13T09:08:09.628Z,68.21
2024-02-13T09:10:37.317Z,68.22
2024-02-13T09:13:04.616Z,68.04
2024-02-13T09:15:32.035Z,67.92
2024-02-13T09:18:01.510Z,67.77
2024-02-13T09:20:29.975Z,67.48
2024-02-13T09:22:58.324Z,67.41
2024-02-13T09:25:25.542Z,67.45
2024-02-13T09:27:54.181Z,67.53
2024-02-13T09:30:21.479Z,67.43
2024-02-13T09:32:49.764Z,67.43
2024-02-13T09:35:19.293Z,67.62
2024-02-13T09:37:57.222Z,67.53
2024-02-13T09:40:28.984Z,67.36
2024-02-13T09:42:57.136Z,67.82
2024-02-13T09:45:24.336Z,67.78
2024-02-13T09:47:51.665Z,67.54
2024-02-13T09:50:20.092Z,67.21
2024-02-13T09:52:49.210Z,67.39
2024-02-13T09:55:16.816Z,67.06
2024-02-13T09:57:48.235Z,67.28
2024-02-13T10:00:18.080Z,67.00
2024-02-13T10:02:48.708Z,67.08
2024-02-13T10:05:18.557Z,67.12
2024-02-13T10:07:46.703Z,67.01
2024-02-13T10:10:14.229Z,67.15
2024-02-13T10:12:59.365Z,66.36
2024-02-13T10:15:38.105Z,67.33
2024-02-13T10:18:12.953Z,67.03
2024-02-13T10:20:44.200Z,66.84
2024-02-13T10:23:21.081Z,66.86
2024-02-13T10:25:48.304Z,67.19
2024-02-13T10:28:18.655Z,67.08
2024-02-13T10:30:50.420Z,66.83
2024-02-13T10:33:17.838Z,66.86
2024-02-13T10:35:45.599Z,67.04
2024-02-13T10:38:14.092Z,66.42
2024-02-13T10:40:44.561Z,66.54
2024-02-13T10:43:13.877Z,66.93
2024-02-13T10:45:42.154Z,66.46
2024-02-13T10:48:34.152Z,65.99
2024-02-13T10:51:03.927Z,66.76
2024-02-13T10:53:34.026Z,66.27
2024-02-13T10:56:04.087Z,66.78
2024-02-13T10:58:34.421Z,66.59
2024-02-13T11:01:04.846Z,66.05
2024-02-13T11:03:34.691Z,66.16
2024-02-13T11:06:02.718Z,66.19
2024-02-13T11:08:30.126Z,65.63
2024-02-13T11:10:57.290Z,65.52
2024-02-13T11:13:27.305Z,65.78
2024-02-13T11:15:59.539Z,65.70
2024-02-13T11:18:52.036Z,65.60
2024-02-13T11:21:21.444Z,65.77
2024-02-13T11:24:13.633Z,65.81
2024-02-13T11:26:40.848Z,65.81
2024-02-13T11:29:25.744Z,65.12
2024-02-13T11:31:59.268Z,65.70
2024-02-13T11:34:42.887Z,65.14
2024-02-13T11:37:28.383Z,65.55
2024-02-13T11:39:58.168Z,66.00
2024-02-13T11:42:33.820Z,65.88
2024-02-13T11:45:13.326Z,65.63
2024-02-13T11:47:51.161Z,66.00
2024-02-13T11:50:20.899Z,65.89
2024-02-13T11:52:49.613Z,65.61
2024-02-13T11:55:18.352Z,65.89
2024-02-13T11:57:48.735Z,65.61
2024-02-13T12:00:23.441Z,65.97
2024-02-13T12:03:08.116Z,66.39
2024-02-13T12:05:35.210Z,66.19
2024-02-13T12:08:02.278Z,65.97
2024-02-13T12:10:30.074Z,66.10
2024-02-13T12:12:57.508Z,66.14
2024-02-13T12:15:24.773Z,66.07
2024-02-13T12:17:56.818Z,65.91
2024-02-13T12:20:29.376Z,66.24
2024-02-13T12:23:01.530Z,66.11
2024-02-13T12:25:28.717Z,66.33
2024-02-13T12:28:01.873Z,66.04
2024-02-13T12:30:30.380Z,66.15
2024-02-13T12:33:07.859Z,66.36
2024-02-13T12:35:40.854Z,66.43
2024-02-13T12:38:16.202Z,66.23
2024-02-13T12:40:45.905Z,66.39
2024-02-13T12:43:17.473Z,66.63
2024-02-13T12:45:47.842Z,66.76
2024-02-13T12:48:15.846Z,66.68
2024-02-13T12:50:43.392Z,66.71
2024-02-13T12:53:11.130Z,66.45
2024-02-13T12:55:44.624Z,66.17
2024-02-13T12:58:14.192Z,66.16
2024-02-13T13:00:47.778Z,66.55
2024-02-13T13:03:16.156Z,66.13
2024-02-13T13:05:44.785Z,66.39
2024-02-13T13:08:16.525Z,66.69
2024-02-13T13:10:44.659Z,66.41
2024-02-13T13:13:18.725Z,66.33
2024-02-13T13:15:47.532Z,66.41
2024-02-13T13:18:21.337Z,66.80
2024-02-13T13:20:49.877Z,66.47
2024-02-13T13:23:17.321Z,66.53
2024-02-13T13:25:47.197Z,66.43
2024-02-13T13:28:17.684Z,66.49
2024-02-13T13:30:50.292Z,66.67
2024-02-13T13:33:20.744Z,67.01
2024-02-13T13:35:48.801Z,67.08
2024-02-13T13:38:18.732Z,67.13
2024-02-13T13:40:49.524Z,66.91
2024-02-13T13:43:16.933Z,67.09
2024-02-13T13:45:58.302Z,66.76
2024-02-13T13:48:31.511Z,66.88
2024-02-13T13:51:01.719Z,66.96
2024-02-13T13:53:28.844Z,66.63
2024-02-13T13:55:56.706Z,66.95
2024-02-13T13:58:26.845Z,66.70
2024-02-13T14:00:57.088Z,67.09
2024-02-13T14:03:24.924Z,67.23
2024-02-13T14:05:52.322Z,67.22
2024-02-13T14:08:19.832Z,66.63
2024-02-13T14:10:47.963Z,66.76
2024-02-13T14:13:15.477Z,66.93
2024-02-13T14:15:42.663Z,66.81
2024-02-13T14:18:13.898Z,67.52
2024-02-13T14:20:42.009Z,66.81
2024-02-13T14:23:10.427Z,66.86
2024-02-13T14:25:38.490Z,67.31
2024-02-13T14:28:08.721Z,66.71
2024-02-13T14:30:36.322Z,66.88
2024-02-13T14:33:07.287Z,67.45
2024-02-13T14:35:35.692Z,67.34
2024-02-13T14:38:16.931Z,67.27
2024-02-13T14:40:50.287Z,67.46
2024-02-13T14:43:17.683Z,67.14
2024-02-13T14:45:47.310Z,66.86
2024-02-13T14:48:17.402Z,67.18
2024-02-13T14:50:48.471Z,67.39
2024-02-13T14:53:22.368Z,67.10
2024-02-13T14:55:50.358Z,66.93
2024-02-13T14:58:26.063Z,67.44
2024-02-13T15:00:58.759Z,67.22
2024-02-13T15:03:26.294Z,67.18
2024-02-13T15:05:54.631Z,67.85
2024-02-13T15:08:25.401Z,67.32
2024-02-13T15:10:53.391Z,67.82
2024-02-13T15:13:21.674Z,67.35
2024-02-13T15:15:52.233Z,67.57
2024-02-13T15:18:40.072Z,67.63
2024-02-13T15:21:15.512Z,67.62
2024-02-13T15:23:43.160Z,67.51
2024-02-13T15:26:11.621Z,67.84
2024-02-13T15:28:38.710Z,67.69
2024-02-13T15:31:05.810Z,67.94
2024-02-13T15:33:43.660Z,68.04
2024-02-13T15:36:29.191Z,67.71
2024-02-13T15:39:15.098Z,67.71
2024-02-13T15:42:01.320Z,67.46
2024-02-13T15:44:47.087Z,68.10
2024-02-13T15:47:14.178Z,67.81
2024-02-13T15:49:45.253Z,67.89
2024-02-13T15:52:15.795Z,68.26
2024-02-13T15:54:43.260Z,67.79
2024-02-13T15:57:13.968Z,68.09
2024-02-13T15:59:45.070Z,67.91
2024-02-13T16:02:15.879Z,68.05
2024-02-13T16:04:44.262Z,67.61
2024-02-13T16:07:12.157Z,68.05
2024-02-13T16:09:39.900Z,68.12
2024-02-13T16:12:07.364Z,68.07
2024-02-13T16:14:34.766Z,68.06
2024-02-13T16:17:02.453Z,68.58
2024-02-13T16:19:31.693Z,68.55
2024-02-13T16:21:59.469Z,68.23
2024-02-13T16:24:26.928Z,68.43
2024-02-13T16:26:54.876Z,68.26
2024-02-13T16:29:24.916Z,67.99
2024-02-13T16:31:56.030Z,68.32
2024-02-13T16:34:23.411Z,68.59
2024-02-13T16:36:50.569Z,68.39
2024-02-13T16:39:19.267Z,68.56
2024-02-13T16:41:47.302Z,68.50
2024-02-13T16:44:19.024Z,68.19
2024-02-13T16:46:48.900Z,68.03
2024-02-13T16:49:16.122Z,68.44
2024-02-13T16:51:43.331Z,68.71
2024-02-13T16:54:11.316Z,68.62
2024-02-13T16:56:38.622Z,68.44
2024-02-13T16:59:07.019Z,68.81
2024-02-13T17:01:34.325Z,68.42
2024-02-13T17:04:02.347Z,68.48
2024-02-13T17:06:33.578Z,68.54
2024-02-13T17:09:02.030Z,68.29
2024-02-13T17:11:30.248Z,68.40
2024-02-13T17:13:57.458Z,68.58
2024-02-13T17:16:24.441Z,68.30
2024-02-13T17:18:51.871Z,68.98
2024-02-13T17:21:19.877Z,68.88
2024-02-13T17:23:46.977Z,68.59
2024-02-13T17:26:21.397Z,68.83
2024-02-13T17:28:48.728Z,68.74
2024-02-13T17:31:16.505Z,68.54
2024-02-13T17:33:44.945Z,68.93
2024-02-13T17:36:12.833Z,68.83
2024-02-13T17:38:40.045Z,69.13
2024-02-13T17:41:07.771Z,69.00
2024-02-13T17:43:35.674Z,68.90
2024-02-13T17:46:02.872Z,68.74
2024-02-13T17:48:30.373Z,68.73
2024-02-13T17:50:57.826Z,68.87
2024-02-13T17:53:24.953Z,68.67
2024-02-13T17:55:52.271Z,68.81
2024-02-13T17:58:19.420Z,68.70
2024-02-13T18:00:46.567Z,68.94
2024-02-13T18:03:13.857Z,68.97
2024-02-13T18:05:41.428Z,68.76
2024-02-13T18:08:29.023Z,68.99
2024-02-13T18:10:56.128Z,69.06
2024-02-13T18:13:23.592Z,68.65
2024-02-13T18:15:51.763Z,68.64
2024-02-13T18:18:19.446Z,68.97
2024-02-13T18:20:47.313Z,68.66
2024-02-13T18:23:16.952Z,68.82
2024-02-13T18:25:45.131Z,68.70
2024-02-13T18:28:14.683Z,68.90
2024-02-13T18:30:42.213Z,68.78
2024-02-13T18:33:09.746Z,68.68
2024-02-13T18:35:49.206Z,68.83
2024-02-13T18:38:16.714Z,69.22
2024-02-13T18:52:48.824Z,68.30
2024-02-13T19:05:33.117Z,68.65
2024-02-13T19:08:59.619Z,68.20
2024-02-13T19:25:36.016Z,68.84
2024-02-13T19:28:18.371Z,68.41
2024-02-13T19:31:37.510Z,68.25
2024-02-13T19:35:01.866Z,68.95
2024-02-13T19:37:33.265Z,68.97
2024-02-13T19:40:00.541Z,69.00
2024-02-13T19:42:27.820Z,68.98
2024-02-13T19:44:54.984Z,68.90
2024-02-13T19:47:22.499Z,68.84
2024-02-13T19:50:09.722Z,68.74
2024-02-13T19:52:56.852Z,68.73
2024-02-13T19:55:44.559Z,68.86
2024-02-13T19:58:31.621Z,68.69
2024-02-13T20:01:19.009Z,68.55
2024-02-13T20:04:06.595Z,68.54
2024-02-13T20:06:54.185Z,68.82
2024-02-13T20:09:21.265Z,69.01
2024-02-13T20:11:48.513Z,68.53
2024-02-13T20:14:15.949Z,68.56
2024-02-13T20:16:43.548Z,68.57
2024-02-13T20:19:11.122Z,69.14
2024-02-13T20:21:40.915Z,68.57
2024-02-13T20:24:09.657Z,69.26
2024-02-13T20:26:39.827Z,69.11
2024-02-13T20:29:07.573Z,69.39
2024-02-13T20:31:35.359Z,69.26
2024-02-13T20:34:02.845Z,69.05
2024-02-13T20:36:30.628Z,69.25
2024-02-13T20:39:11.228Z,69.45
2024-02-13T20:41:42.497Z,68.87
2024-02-13T20:44:10.867Z,69.47
2024-02-13T20:46:39.302Z,69.42
2024-02-13T20:49:14.067Z,68.96
2024-02-13T20:51:44.433Z,69.49
2024-02-13T20:54:16.992Z,69.36
2024-02-13T20:56:49.959Z,69.18
2024-02-13T20:59:19.087Z,68.64
2024-02-13T21:01:49.226Z,68.71
2024-02-13T21:04:16.837Z,68.73
2024-02-13T21:06:45.192Z,69.21
2024-02-13T21:09:13.635Z,69.08
2024-02-13T21:11:42.327Z,68.55
2024-02-13T21:14:11.433Z,68.94
2024-02-13T21:16:38.530Z,69.08
2024-02-13T21:19:11.020Z,69.00
2024-02-13T21:22:01.120Z,69.34
2024-02-13T21:24:29.845Z,69.68
2024-02-13T21:26:56.972Z,69.10
2024-02-13T21:29:24.138Z,68.66
2024-02-13T21:31:51.154Z,68.84
2024-02-13T21:34:21.696Z,68.60
2024-02-13T21:36:48.927Z,68.71
2024-02-13T21:39:16.327Z,69.04
2024-02-13T21:41:43.670Z,69.72
2024-02-13T21:44:10.737Z,69.14
2024-02-13T21:46:38.569Z,69.05
2024-02-13T21:49:07.970Z,69.01
2024-02-13T21:51:35.343Z,69.12
2024-02-13T21:54:02.676Z,69.36
2024-02-13T21:56:30.067Z,69.55
2024-02-13T21:58:57.116Z,68.98
2024-02-13T22:01:25.239Z,68.91
2024-02-13T22:03:52.366Z,69.64
2024-02-13T22:06:22.362Z,69.04
2024-02-13T22:08:49.808Z,69.17
2024-02-13T22:11:16.832Z,68.98
2024-02-13T22:13:44.056Z,68.62
2024-02-13T22:16:11.247Z,69.13
2024-02-13T22:18:38.682Z,68.47
2024-02-13T22:21:06.838Z,68.74
2024-02-13T22:23:34.480Z,69.33
2024-02-13T22:26:03.124Z,69.65
2024-02-13T22:28:30.632Z,68.57
2024-02-13T22:30:57.989Z,69.59
2024-02-13T22:33:33.342Z,69.33
2024-02-13T22:36:00.659Z,68.92
2024-02-13T22:38:27.978Z,68.79
2024-02-13T22:40:55.360Z,69.42
2024-02-13T22:43:22.438Z,68.86
2024-02-13T22:45:49.620Z,69.29
2024-02-13T22:48:16.688Z,69.55
2024-02-13T22:50:43.951Z,68.86
2024-02-13T22:53:10.973Z,69.13
2024-02-13T22:55:39.832Z,68.62
2024-02-13T22:58:07.120Z,68.83
2024-02-13T23:00:50.794Z,69.10
2024-02-13T23:03:19.199Z,69.08
2024-02-13T23:05:51.475Z,69.28
2024-02-13T23:08:18.968Z,69.54
2024-02-13T23:10:46.382Z,68.83
2024-02-13T23:13:18.206Z,69.17
2024-02-13T23:15:45.394Z,69.53
2024-02-13T23:18:13.800Z,69.00
2024-02-13T23:20:41.845Z,69.65
2024-02-13T23:23:10.066Z,69.67
2024-02-13T23:25:37.545Z,68.85
2024-02-13T23:28:13.762Z,69.78
2024-02-13T23:30:44.512Z,69.65
2024-02-13T23:33:13.442Z,69.82
2024-02-13T23:35:41.072Z,69.45
2024-02-13T23:38:09.470Z,69.51
2024-02-13T23:40:37.680Z,69.41
2024-02-13T23:43:07.281Z,68.70
2024-02-13T23:45:35.078Z,68.90
2024-02-13T23:48:02.354Z,69.74
2024-02-13T23:50:30.614Z,68.86
2024-02-13T23:52:58.104Z,69.71
2024-02-13T23:55:27.513Z,69.18
2024-02-13T23:57:55.034Z,69.58
